sensor_id;sensor_type;location;lat;lon;timestamp;P1;durP1;ratioP1;P2;durP2;ratioP2
77324;SDS011;66387;53.440;10.390;2023-09-19T00:00:47;2.85;;;1.70;;
77324;SDS011;66387;53.440;10.390;2023-09-19T00:03:13;1.85;;;1.35;;
77324;SDS011;66387;53.440;10.390;2023-09-19T00:05:39;2.72;;;1.70;;
77324;SDS011;66387;53.440;10.390;2023-09-19T00:08:04;2.43;;;1.90;;
77324;SDS011;66387;53.440;10.390;2023-09-19T00:10:31;2.47;;;1.63;;
77324;SDS011;66387;53.440;10.390;2023-09-19T00:12:59;2.72;;;1.83;;
77324;SDS011;66387;53.440;10.390;2023-09-19T00:15:30;5.10;;;2.17;;
77324;SDS011;66387;53.440;10.390;2023-09-19T00:17:58;2.28;;;1.90;;
77324;SDS011;66387;53.440;10.390;2023-09-19T00:20:23;4.07;;;2.00;;
77324;SDS011;66387;53.440;10.390;2023-09-19T00:22:50;4.28;;;2.03;;
77324;SDS011;66387;53.440;10.390;2023-09-19T00:25:18;5.97;;;2.30;;
77324;SDS011;66387;53.440;10.390;2023-09-19T00:27:45;3.58;;;2.03;;
77324;SDS011;66387;53.440;10.390;2023-09-19T00:30:12;4.63;;;1.85;;
77324;SDS011;66387;53.440;10.390;2023-09-19T00:32:44;3.63;;;2.08;;
77324;SDS011;66387;53.440;10.390;2023-09-19T00:40:04;2.45;;;1.80;;
77324;SDS011;66387;53.440;10.390;2023-09-19T00:42:31;2.33;;;1.80;;
77324;SDS011;66387;53.440;10.390;2023-09-19T00:44:56;3.17;;;2.20;;
77324;SDS011;66387;53.440;10.390;2023-09-19T00:47:22;3.00;;;2.03;;
77324;SDS011;66387;53.440;10.390;2023-09-19T00:49:47;3.07;;;2.27;;
77324;SDS011;66387;53.440;10.390;2023-09-19T00:52:17;4.88;;;2.08;;
77324;SDS011;66387;53.440;10.390;2023-09-19T00:54:46;3.47;;;2.20;;
77324;SDS011;66387;53.440;10.390;2023-09-19T00:57:12;3.67;;;2.60;;
77324;SDS011;66387;53.440;10.390;2023-09-19T00:59:41;4.03;;;2.28;;
77324;SDS011;66387;53.440;10.390;2023-09-19T01:02:07;5.63;;;2.70;;
77324;SDS011;66387;53.440;10.390;2023-09-19T01:04:33;3.22;;;2.30;;
77324;SDS011;66387;53.440;10.390;2023-09-19T01:06:59;3.38;;;2.40;;
77324;SDS011;66387;53.440;10.390;2023-09-19T01:09:24;6.70;;;2.50;;
77324;SDS011;66387;53.440;10.390;2023-09-19T01:11:50;4.70;;;2.70;;
77324;SDS011;66387;53.440;10.390;2023-09-19T01:14:30;3.92;;;2.75;;
77324;SDS011;66387;53.440;10.390;2023-09-19T01:17:19;2.88;;;2.45;;
77324;SDS011;66387;53.440;10.390;2023-09-19T01:20:03;5.65;;;2.78;;
77324;SDS011;66387;53.440;10.390;2023-09-19T01:30:26;8.30;;;4.18;;
77324;SDS011;66387;53.440;10.390;2023-09-19T01:32:57;4.60;;;3.28;;
77324;SDS011;66387;53.440;10.390;2023-09-19T01:35:24;4.72;;;3.10;;
77324;SDS011;66387;53.440;10.390;2023-09-19T01:37:49;5.63;;;3.70;;
77324;SDS011;66387;53.440;10.390;2023-09-19T01:40:16;6.67;;;3.80;;
77324;SDS011;66387;53.440;10.390;2023-09-19T01:42:45;5.15;;;3.65;;
77324;SDS011;66387;53.440;10.390;2023-09-19T01:45:13;4.82;;;3.85;;
77324;SDS011;66387;53.440;10.390;2023-09-19T01:47:48;7.75;;;3.80;;
77324;SDS011;66387;53.440;10.390;2023-09-19T01:53:06;5.60;;;3.30;;
77324;SDS011;66387;53.440;10.390;2023-09-19T01:55:39;6.95;;;3.58;;
77324;SDS011;66387;53.440;10.390;2023-09-19T01:58:14;6.65;;;4.20;;
77324;SDS011;66387;53.440;10.390;2023-09-19T02:00:42;4.70;;;3.20;;
77324;SDS011;66387;53.440;10.390;2023-09-19T02:03:11;4.55;;;3.83;;
77324;SDS011;66387;53.440;10.390;2023-09-19T02:05:37;6.97;;;4.05;;
77324;SDS011;66387;53.440;10.390;2023-09-19T02:08:04;6.10;;;4.10;;
77324;SDS011;66387;53.440;10.390;2023-09-19T02:10:30;6.53;;;4.63;;
77324;SDS011;66387;53.440;10.390;2023-09-19T02:12:55;8.23;;;3.53;;
77324;SDS011;66387;53.440;10.390;2023-09-19T02:15:21;5.30;;;4.20;;
77324;SDS011;66387;53.440;10.390;2023-09-19T02:17:47;5.03;;;3.40;;
77324;SDS011;66387;53.440;10.390;2023-09-19T02:20:12;3.90;;;3.50;;
77324;SDS011;66387;53.440;10.390;2023-09-19T02:22:40;5.25;;;3.25;;
77324;SDS011;66387;53.440;10.390;2023-09-19T02:25:06;6.47;;;3.80;;
77324;SDS011;66387;53.440;10.390;2023-09-19T02:27:32;8.05;;;3.58;;
77324;SDS011;66387;53.440;10.390;2023-09-19T02:29:58;4.60;;;3.07;;
77324;SDS011;66387;53.440;10.390;2023-09-19T02:32:23;5.07;;;3.97;;
77324;SDS011;66387;53.440;10.390;2023-09-19T02:34:48;6.77;;;3.53;;
77324;SDS011;66387;53.440;10.390;2023-09-19T02:37:16;4.57;;;3.55;;
77324;SDS011;66387;53.440;10.390;2023-09-19T02:39:43;3.60;;;2.80;;
77324;SDS011;66387;53.440;10.390;2023-09-19T02:42:09;5.00;;;3.27;;
77324;SDS011;66387;53.440;10.390;2023-09-19T02:44:34;8.17;;;3.63;;
77324;SDS011;66387;53.440;10.390;2023-09-19T02:47:00;5.90;;;3.50;;
77324;SDS011;66387;53.440;10.390;2023-09-19T02:49:25;6.00;;;3.47;;
77324;SDS011;66387;53.440;10.390;2023-09-19T02:51:50;5.30;;;3.40;;
77324;SDS011;66387;53.440;10.390;2023-09-19T02:54:16;6.38;;;3.90;;
77324;SDS011;66387;53.440;10.390;2023-09-19T02:56:42;4.70;;;3.08;;
77324;SDS011;66387;53.440;10.390;2023-09-19T02:59:08;5.40;;;3.30;;
77324;SDS011;66387;53.440;10.390;2023-09-19T03:01:35;6.50;;;4.05;;
77324;SDS011;66387;53.440;10.390;2023-09-19T03:04:02;7.13;;;3.20;;
77324;SDS011;66387;53.440;10.390;2023-09-19T03:06:27;4.15;;;3.60;;
77324;SDS011;66387;53.440;10.390;2023-09-19T03:08:53;6.70;;;3.22;;
77324;SDS011;66387;53.440;10.390;2023-09-19T03:11:20;4.47;;;3.17;;
77324;SDS011;66387;53.440;10.390;2023-09-19T03:13:51;6.07;;;2.90;;
77324;SDS011;66387;53.440;10.390;2023-09-19T03:16:17;7.45;;;3.30;;
77324;SDS011;66387;53.440;10.390;2023-09-19T03:18:44;6.32;;;3.67;;
77324;SDS011;66387;53.440;10.390;2023-09-19T03:21:10;6.13;;;3.53;;
77324;SDS011;66387;53.440;10.390;2023-09-19T03:23:35;5.80;;;5.17;;
77324;SDS011;66387;53.440;10.390;2023-09-19T03:26:01;3.60;;;2.80;;
77324;SDS011;66387;53.440;10.390;2023-09-19T03:28:26;5.78;;;3.00;;
77324;SDS011;66387;53.440;10.390;2023-09-19T03:30:59;6.38;;;3.10;;
77324;SDS011;66387;53.440;10.390;2023-09-19T03:33:28;4.80;;;2.80;;
77324;SDS011;66387;53.440;10.390;2023-09-19T03:35:56;5.50;;;3.05;;
77324;SDS011;66387;53.440;10.390;2023-09-19T03:38:23;5.60;;;3.08;;
77324;SDS011;66387;53.440;10.390;2023-09-19T03:40:48;5.32;;;3.70;;
77324;SDS011;66387;53.440;10.390;2023-09-19T03:43:14;6.63;;;2.60;;
77324;SDS011;66387;53.440;10.390;2023-09-19T03:45:39;6.10;;;3.05;;
77324;SDS011;66387;53.440;10.390;2023-09-19T03:48:08;3.65;;;2.58;;
77324;SDS011;66387;53.440;10.390;2023-09-19T03:50:34;3.10;;;2.40;;
77324;SDS011;66387;53.440;10.390;2023-09-19T03:52:59;4.50;;;2.97;;
77324;SDS011;66387;53.440;10.390;2023-09-19T03:55:25;5.23;;;2.83;;
77324;SDS011;66387;53.440;10.390;2023-09-19T03:57:50;3.80;;;2.40;;
77324;SDS011;66387;53.440;10.390;2023-09-19T04:00:15;7.05;;;2.30;;
77324;SDS011;66387;53.440;10.390;2023-09-19T04:07:35;3.08;;;1.52;;
77324;SDS011;66387;53.440;10.390;2023-09-19T04:10:00;3.27;;;1.50;;
77324;SDS011;66387;53.440;10.390;2023-09-19T04:12:26;5.45;;;2.25;;
77324;SDS011;66387;53.440;10.390;2023-09-19T04:14:51;3.90;;;1.60;;
77324;SDS011;66387;53.440;10.390;2023-09-19T04:17:16;2.72;;;1.52;;
77324;SDS011;66387;53.440;10.390;2023-09-19T04:19:42;3.67;;;1.80;;
77324;SDS011;66387;53.440;10.390;2023-09-19T04:22:07;4.60;;;1.80;;
77324;SDS011;66387;53.440;10.390;2023-09-19T04:24:32;6.07;;;1.97;;
77324;SDS011;66387;53.440;10.390;2023-09-19T04:26:57;5.87;;;1.70;;
77324;SDS011;66387;53.440;10.390;2023-09-19T04:29:24;6.18;;;1.50;;
77324;SDS011;66387;53.440;10.390;2023-09-19T04:31:51;4.55;;;1.90;;
77324;SDS011;66387;53.440;10.390;2023-09-19T04:34:17;2.55;;;1.52;;
77324;SDS011;66387;53.440;10.390;2023-09-19T04:36:42;3.43;;;1.57;;
77324;SDS011;66387;53.440;10.390;2023-09-19T04:39:08;5.55;;;2.15;;
77324;SDS011;66387;53.440;10.390;2023-09-19T04:41:35;2.20;;;1.08;;
77324;SDS011;66387;53.440;10.390;2023-09-19T04:44:03;2.47;;;1.50;;
77324;SDS011;66387;53.440;10.390;2023-09-19T04:46:29;3.28;;;1.80;;
77324;SDS011;66387;53.440;10.390;2023-09-19T04:48:55;4.43;;;1.98;;
77324;SDS011;66387;53.440;10.390;2023-09-19T04:51:20;4.30;;;2.00;;
77324;SDS011;66387;53.440;10.390;2023-09-19T04:53:45;2.53;;;1.30;;
77324;SDS011;66387;53.440;10.390;2023-09-19T04:56:10;2.20;;;1.30;;
77324;SDS011;66387;53.440;10.390;2023-09-19T04:58:36;4.33;;;1.83;;
77324;SDS011;66387;53.440;10.390;2023-09-19T05:01:01;7.47;;;2.20;;
77324;SDS011;66387;53.440;10.390;2023-09-19T05:03:27;2.88;;;1.85;;
77324;SDS011;66387;53.440;10.390;2023-09-19T05:05:52;3.77;;;1.60;;
77324;SDS011;66387;53.440;10.390;2023-09-19T05:08:18;4.60;;;2.10;;
77324;SDS011;66387;53.440;10.390;2023-09-19T05:10:43;2.13;;;1.50;;
77324;SDS011;66387;53.440;10.390;2023-09-19T05:13:08;6.53;;;2.93;;
77324;SDS011;66387;53.440;10.390;2023-09-19T05:15:33;4.63;;;1.63;;
77324;SDS011;66387;53.440;10.390;2023-09-19T05:18:00;7.45;;;1.85;;
77324;SDS011;66387;53.440;10.390;2023-09-19T05:20:26;3.72;;;1.58;;
77324;SDS011;66387;53.440;10.390;2023-09-19T05:23:04;3.78;;;1.50;;
77324;SDS011;66387;53.440;10.390;2023-09-19T05:25:32;4.97;;;1.52;;
77324;SDS011;66387;53.440;10.390;2023-09-19T05:28:02;5.35;;;1.65;;
77324;SDS011;66387;53.440;10.390;2023-09-19T05:30:28;3.05;;;1.80;;
77324;SDS011;66387;53.440;10.390;2023-09-19T05:32:54;6.53;;;1.77;;
77324;SDS011;66387;53.440;10.390;2023-09-19T05:35:20;4.97;;;1.77;;
77324;SDS011;66387;53.440;10.390;2023-09-19T05:37:46;4.47;;;1.75;;
77324;SDS011;66387;53.440;10.390;2023-09-19T05:40:12;4.68;;;1.90;;
77324;SDS011;66387;53.440;10.390;2023-09-19T05:42:39;6.45;;;1.85;;
77324;SDS011;66387;53.440;10.390;2023-09-19T05:45:06;5.50;;;1.63;;
77324;SDS011;66387;53.440;10.390;2023-09-19T05:47:32;4.95;;;1.70;;
77324;SDS011;66387;53.440;10.390;2023-09-19T05:49:57;3.80;;;1.52;;
77324;SDS011;66387;53.440;10.390;2023-09-19T05:52:24;3.17;;;1.65;;
77324;SDS011;66387;53.440;10.390;2023-09-19T05:54:49;5.67;;;1.90;;
77324;SDS011;66387;53.440;10.390;2023-09-19T05:57:15;3.58;;;1.50;;
77324;SDS011;66387;53.440;10.390;2023-09-19T05:59:41;4.15;;;1.70;;
77324;SDS011;66387;53.440;10.390;2023-09-19T06:02:07;4.03;;;2.05;;
77324;SDS011;66387;53.440;10.390;2023-09-19T06:04:34;3.67;;;1.98;;
77324;SDS011;66387;53.440;10.390;2023-09-19T06:06:59;4.17;;;1.93;;
77324;SDS011;66387;53.440;10.390;2023-09-19T06:09:25;3.65;;;2.25;;
77324;SDS011;66387;53.440;10.390;2023-09-19T06:11:52;3.67;;;2.10;;
77324;SDS011;66387;53.440;10.390;2023-09-19T06:14:18;4.95;;;2.17;;
77324;SDS011;66387;53.440;10.390;2023-09-19T06:16:44;4.80;;;1.90;;
77324;SDS011;66387;53.440;10.390;2023-09-19T06:19:09;5.50;;;1.83;;
77324;SDS011;66387;53.440;10.390;2023-09-19T06:21:35;4.53;;;1.73;;
77324;SDS011;66387;53.440;10.390;2023-09-19T06:24:00;5.35;;;2.10;;
77324;SDS011;66387;53.440;10.390;2023-09-19T06:26:26;4.65;;;1.85;;
77324;SDS011;66387;53.440;10.390;2023-09-19T06:28:52;3.65;;;2.25;;
77324;SDS011;66387;53.440;10.390;2023-09-19T06:31:17;5.30;;;1.77;;
77324;SDS011;66387;53.440;10.390;2023-09-19T06:33:43;5.72;;;1.90;;
77324;SDS011;66387;53.440;10.390;2023-09-19T06:36:08;2.77;;;1.73;;
77324;SDS011;66387;53.440;10.390;2023-09-19T06:38:34;5.33;;;2.10;;
77324;SDS011;66387;53.440;10.390;2023-09-19T06:41:01;3.95;;;1.67;;
77324;SDS011;66387;53.440;10.390;2023-09-19T06:43:29;5.28;;;2.10;;
77324;SDS011;66387;53.440;10.390;2023-09-19T06:45:55;3.90;;;1.90;;
77324;SDS011;66387;53.440;10.390;2023-09-19T06:48:22;3.90;;;1.73;;
77324;SDS011;66387;53.440;10.390;2023-09-19T06:50:49;4.72;;;2.38;;
77324;SDS011;66387;53.440;10.390;2023-09-19T06:53:15;8.77;;;2.58;;
77324;SDS011;66387;53.440;10.390;2023-09-19T06:55:41;7.18;;;2.55;;
77324;SDS011;66387;53.440;10.390;2023-09-19T07:00:35;4.88;;;2.20;;
77324;SDS011;66387;53.440;10.390;2023-09-19T07:03:02;6.53;;;2.35;;
77324;SDS011;66387;53.440;10.390;2023-09-19T07:05:29;6.05;;;2.55;;
77324;SDS011;66387;53.440;10.390;2023-09-19T07:07:56;5.43;;;2.47;;
77324;SDS011;66387;53.440;10.390;2023-09-19T07:10:24;5.35;;;2.05;;
77324;SDS011;66387;53.440;10.390;2023-09-19T07:13:09;6.32;;;2.50;;
77324;SDS011;66387;53.440;10.390;2023-09-19T07:15:35;5.75;;;1.92;;
77324;SDS011;66387;53.440;10.390;2023-09-19T07:18:04;4.97;;;2.45;;
77324;SDS011;66387;53.440;10.390;2023-09-19T07:20:31;3.80;;;2.75;;
77324;SDS011;66387;53.440;10.390;2023-09-19T07:22:57;6.18;;;2.90;;
77324;SDS011;66387;53.440;10.390;2023-09-19T07:25:26;7.45;;;2.50;;
77324;SDS011;66387;53.440;10.390;2023-09-19T07:27:51;4.68;;;2.92;;
77324;SDS011;66387;53.440;10.390;2023-09-19T07:30:17;6.85;;;2.80;;
77324;SDS011;66387;53.440;10.390;2023-09-19T07:32:42;6.15;;;2.03;;
77324;SDS011;66387;53.440;10.390;2023-09-19T07:35:08;6.20;;;2.07;;
77324;SDS011;66387;53.440;10.390;2023-09-19T07:37:33;7.68;;;2.80;;
77324;SDS011;66387;53.440;10.390;2023-09-19T07:39:59;5.18;;;2.42;;
77324;SDS011;66387;53.440;10.390;2023-09-19T07:42:26;8.27;;;2.75;;
77324;SDS011;66387;53.440;10.390;2023-09-19T07:44:51;5.75;;;2.63;;
77324;SDS011;66387;53.440;10.390;2023-09-19T07:47:18;8.88;;;3.38;;
77324;SDS011;66387;53.440;10.390;2023-09-19T07:49:46;5.10;;;2.50;;
77324;SDS011;66387;53.440;10.390;2023-09-19T07:52:12;8.27;;;2.75;;
77324;SDS011;66387;53.440;10.390;2023-09-19T07:54:38;5.35;;;3.28;;
77324;SDS011;66387;53.440;10.390;2023-09-19T07:57:03;3.70;;;2.53;;
77324;SDS011;66387;53.440;10.390;2023-09-19T07:59:29;9.13;;;3.15;;
77324;SDS011;66387;53.440;10.390;2023-09-19T08:01:54;7.53;;;3.13;;
77324;SDS011;66387;53.440;10.390;2023-09-19T08:04:19;7.17;;;2.43;;
77324;SDS011;66387;53.440;10.390;2023-09-19T08:06:45;8.47;;;2.87;;
77324;SDS011;66387;53.440;10.390;2023-09-19T08:09:10;5.70;;;2.43;;
77324;SDS011;66387;53.440;10.390;2023-09-19T08:11:37;7.88;;;3.13;;
77324;SDS011;66387;53.440;10.390;2023-09-19T08:14:04;5.82;;;2.50;;
77324;SDS011;66387;53.440;10.390;2023-09-19T08:16:30;6.90;;;2.72;;
77324;SDS011;66387;53.440;10.390;2023-09-19T08:18:56;4.10;;;2.50;;
77324;SDS011;66387;53.440;10.390;2023-09-19T08:21:21;5.77;;;2.67;;
77324;SDS011;66387;53.440;10.390;2023-09-19T08:23:48;4.28;;;2.75;;
77324;SDS011;66387;53.440;10.390;2023-09-19T08:26:14;5.83;;;2.17;;
77324;SDS011;66387;53.440;10.390;2023-09-19T08:28:39;6.67;;;2.50;;
77324;SDS011;66387;53.440;10.390;2023-09-19T08:31:06;6.43;;;2.58;;
77324;SDS011;66387;53.440;10.390;2023-09-19T08:33:33;6.60;;;2.45;;
77324;SDS011;66387;53.440;10.390;2023-09-19T08:36:00;5.88;;;2.88;;
77324;SDS011;66387;53.440;10.390;2023-09-19T08:38:26;7.05;;;2.67;;
77324;SDS011;66387;53.440;10.390;2023-09-19T08:40:56;8.50;;;2.70;;
77324;SDS011;66387;53.440;10.390;2023-09-19T08:48:31;4.27;;;2.03;;
77324;SDS011;66387;53.440;10.390;2023-09-19T08:51:07;6.53;;;2.70;;
77324;SDS011;66387;53.440;10.390;2023-09-19T08:53:47;5.15;;;2.17;;
77324;SDS011;66387;53.440;10.390;2023-09-19T08:56:16;4.88;;;2.08;;
77324;SDS011;66387;53.440;10.390;2023-09-19T08:58:57;8.45;;;2.50;;
77324;SDS011;66387;53.440;10.390;2023-09-19T09:01:26;5.03;;;1.80;;
77324;SDS011;66387;53.440;10.390;2023-09-19T09:03:53;6.53;;;2.22;;
77324;SDS011;66387;53.440;10.390;2023-09-19T09:06:19;5.55;;;2.22;;
77324;SDS011;66387;53.440;10.390;2023-09-19T09:08:46;5.57;;;2.80;;
77324;SDS011;66387;53.440;10.390;2023-09-19T09:11:12;7.78;;;2.78;;
77324;SDS011;66387;53.440;10.390;2023-09-19T09:13:39;5.43;;;1.70;;
77324;SDS011;66387;53.440;10.390;2023-09-19T09:16:06;7.75;;;2.20;;
77324;SDS011;66387;53.440;10.390;2023-09-19T09:18:32;6.70;;;3.08;;
77324;SDS011;66387;53.440;10.390;2023-09-19T09:20:58;7.63;;;1.95;;
77324;SDS011;66387;53.440;10.390;2023-09-19T09:23:23;5.80;;;1.85;;
77324;SDS011;66387;53.440;10.390;2023-09-19T09:25:53;9.90;;;3.97;;
77324;SDS011;66387;53.440;10.390;2023-09-19T09:33:15;6.10;;;2.05;;
77324;SDS011;66387;53.440;10.390;2023-09-19T09:36:00;7.78;;;2.15;;
77324;SDS011;66387;53.440;10.390;2023-09-19T09:38:42;6.90;;;2.25;;
77324;SDS011;66387;53.440;10.390;2023-09-19T09:41:09;5.32;;;2.05;;
77324;SDS011;66387;53.440;10.390;2023-09-19T09:43:38;3.95;;;1.80;;
77324;SDS011;66387;53.440;10.390;2023-09-19T09:46:10;5.25;;;1.80;;
77324;SDS011;66387;53.440;10.390;2023-09-19T09:48:47;3.83;;;2.22;;
77324;SDS011;66387;53.440;10.390;2023-09-19T09:51:38;4.07;;;1.70;;
77324;SDS011;66387;53.440;10.390;2023-09-19T09:56:56;6.53;;;2.13;;
77324;SDS011;66387;53.440;10.390;2023-09-19T10:02:30;5.93;;;1.80;;
77324;SDS011;66387;53.440;10.390;2023-09-19T10:05:14;4.53;;;1.58;;
77324;SDS011;66387;53.440;10.390;2023-09-19T10:07:53;3.20;;;1.83;;
77324;SDS011;66387;53.440;10.390;2023-09-19T10:13:06;4.70;;;1.98;;
77324;SDS011;66387;53.440;10.390;2023-09-19T10:15:33;6.40;;;2.00;;
77324;SDS011;66387;53.440;10.390;2023-09-19T10:18:04;5.25;;;1.50;;
77324;SDS011;66387;53.440;10.390;2023-09-19T10:20:33;6.22;;;1.58;;
77324;SDS011;66387;53.440;10.390;2023-09-19T10:23:00;5.68;;;2.17;;
77324;SDS011;66387;53.440;10.390;2023-09-19T10:25:28;2.80;;;1.60;;
77324;SDS011;66387;53.440;10.390;2023-09-19T10:27:55;7.32;;;2.03;;
77324;SDS011;66387;53.440;10.390;2023-09-19T10:30:23;5.78;;;2.20;;
77324;SDS011;66387;53.440;10.390;2023-09-19T10:32:57;4.82;;;1.70;;
77324;SDS011;66387;53.440;10.390;2023-09-19T10:35:25;5.43;;;2.00;;
77324;SDS011;66387;53.440;10.390;2023-09-19T10:37:51;3.70;;;1.52;;
77324;SDS011;66387;53.440;10.390;2023-09-19T10:40:19;8.02;;;2.00;;
77324;SDS011;66387;53.440;10.390;2023-09-19T10:42:46;4.80;;;1.88;;
77324;SDS011;66387;53.440;10.390;2023-09-19T10:45:13;5.65;;;1.92;;
77324;SDS011;66387;53.440;10.390;2023-09-19T10:47:45;6.13;;;1.67;;
77324;SDS011;66387;53.440;10.390;2023-09-19T10:50:19;5.03;;;1.60;;
77324;SDS011;66387;53.440;10.390;2023-09-19T10:52:47;4.97;;;1.50;;
77324;SDS011;66387;53.440;10.390;2023-09-19T10:55:18;4.78;;;1.75;;
77324;SDS011;66387;53.440;10.390;2023-09-19T10:57:48;3.97;;;1.95;;
77324;SDS011;66387;53.440;10.390;2023-09-19T11:00:14;8.18;;;2.35;;
77324;SDS011;66387;53.440;10.390;2023-09-19T11:05:35;3.88;;;1.30;;
77324;SDS011;66387;53.440;10.390;2023-09-19T11:08:05;8.27;;;2.20;;
77324;SDS011;66387;53.440;10.390;2023-09-19T11:10:47;3.28;;;2.17;;
77324;SDS011;66387;53.440;10.390;2023-09-19T11:26:43;6.53;;;1.88;;
77324;SDS011;66387;53.440;10.390;2023-09-19T11:31:50;3.78;;;1.40;;
77324;SDS011;66387;53.440;10.390;2023-09-19T11:37:00;4.95;;;1.45;;
77324;SDS011;66387;53.440;10.390;2023-09-19T11:39:29;5.05;;;1.50;;
77324;SDS011;66387;53.440;10.390;2023-09-19T11:41:54;4.88;;;1.70;;
77324;SDS011;66387;53.440;10.390;2023-09-19T11:44:31;5.35;;;2.10;;
77324;SDS011;66387;53.440;10.390;2023-09-19T11:46:59;4.85;;;1.50;;
77324;SDS011;66387;53.440;10.390;2023-09-19T11:49:28;5.25;;;1.70;;
77324;SDS011;66387;53.440;10.390;2023-09-19T11:51:55;7.22;;;2.03;;
77324;SDS011;66387;53.440;10.390;2023-09-19T11:54:22;4.45;;;1.98;;
77324;SDS011;66387;53.440;10.390;2023-09-19T11:56:49;3.50;;;1.52;;
77324;SDS011;66387;53.440;10.390;2023-09-19T11:59:52;4.20;;;1.83;;
77324;SDS011;66387;53.440;10.390;2023-09-19T12:02:13;5.25;;;1.77;;
77324;SDS011;66387;53.440;10.390;2023-09-19T12:04:53;5.13;;;1.38;;
77324;SDS011;66387;53.440;10.390;2023-09-19T12:07:18;5.10;;;1.85;;
77324;SDS011;66387;53.440;10.390;2023-09-19T12:09:45;7.30;;;2.20;;
77324;SDS011;66387;53.440;10.390;2023-09-19T12:12:24;2.92;;;1.50;;
77324;SDS011;66387;53.440;10.390;2023-09-19T12:14:55;3.72;;;1.83;;
77324;SDS011;66387;53.440;10.390;2023-09-19T12:17:24;4.90;;;1.63;;
77324;SDS011;66387;53.440;10.390;2023-09-19T12:20:08;5.22;;;1.75;;
77324;SDS011;66387;53.440;10.390;2023-09-19T12:22:42;6.07;;;2.28;;
77324;SDS011;66387;53.440;10.390;2023-09-19T12:25:08;2.88;;;1.65;;
77324;SDS011;66387;53.440;10.390;2023-09-19T12:27:47;7.75;;;2.30;;
77324;SDS011;66387;53.440;10.390;2023-09-19T12:30:14;4.15;;;1.80;;
77324;SDS011;66387;53.440;10.390;2023-09-19T12:35:07;4.87;;;1.70;;
77324;SDS011;66387;53.440;10.390;2023-09-19T12:37:43;4.82;;;1.70;;
77324;SDS011;66387;53.440;10.390;2023-09-19T12:40:17;5.95;;;2.10;;
77324;SDS011;66387;53.440;10.390;2023-09-19T12:42:47;6.47;;;2.10;;
77324;SDS011;66387;53.440;10.390;2023-09-19T12:45:14;4.35;;;1.88;;
77324;SDS011;66387;53.440;10.390;2023-09-19T12:48:17;5.63;;;1.70;;
77324;SDS011;66387;53.440;10.390;2023-09-19T12:51:06;4.43;;;1.48;;
77324;SDS011;66387;53.440;10.390;2023-09-19T12:53:44;4.57;;;1.83;;
77324;SDS011;66387;53.440;10.390;2023-09-19T12:56:14;3.63;;;1.70;;
77324;SDS011;66387;53.440;10.390;2023-09-19T12:58:56;6.72;;;2.25;;
77324;SDS011;66387;53.440;10.390;2023-09-19T13:01:28;7.55;;;2.08;;
77324;SDS011;66387;53.440;10.390;2023-09-19T13:06:48;4.60;;;1.98;;
77324;SDS011;66387;53.440;10.390;2023-09-19T13:09:15;6.57;;;2.35;;
77324;SDS011;66387;53.440;10.390;2023-09-19T13:11:41;8.38;;;2.00;;
77324;SDS011;66387;53.440;10.390;2023-09-19T13:14:27;7.20;;;2.65;;
77324;SDS011;66387;53.440;10.390;2023-09-19T13:16:56;4.95;;;1.80;;
77324;SDS011;66387;53.440;10.390;2023-09-19T13:19:41;5.35;;;1.98;;
77324;SDS011;66387;53.440;10.390;2023-09-19T13:27:43;5.47;;;1.95;;
77324;SDS011;66387;53.440;10.390;2023-09-19T13:30:09;5.15;;;1.92;;
77324;SDS011;66387;53.440;10.390;2023-09-19T13:32:36;6.18;;;2.00;;
77324;SDS011;66387;53.440;10.390;2023-09-19T13:35:02;5.90;;;2.30;;
77324;SDS011;66387;53.440;10.390;2023-09-19T13:37:29;3.67;;;1.92;;
77324;SDS011;66387;53.440;10.390;2023-09-19T13:39:55;5.30;;;1.97;;
77324;SDS011;66387;53.440;10.390;2023-09-19T13:42:20;7.03;;;2.17;;
77324;SDS011;66387;53.440;10.390;2023-09-19T13:44:47;8.13;;;3.08;;
77324;SDS011;66387;53.440;10.390;2023-09-19T13:47:12;8.55;;;2.35;;
77324;SDS011;66387;53.440;10.390;2023-09-19T13:49:38;5.32;;;2.25;;
77324;SDS011;66387;53.440;10.390;2023-09-19T13:52:04;4.90;;;2.30;;
77324;SDS011;66387;53.440;10.390;2023-09-19T13:54:29;7.05;;;2.65;;
77324;SDS011;66387;53.440;10.390;2023-09-19T13:56:55;5.63;;;2.00;;
77324;SDS011;66387;53.440;10.390;2023-09-19T13:59:20;6.77;;;2.30;;
77324;SDS011;66387;53.440;10.390;2023-09-19T14:01:46;7.88;;;2.67;;
77324;SDS011;66387;53.440;10.390;2023-09-19T14:04:11;4.07;;;2.10;;
77324;SDS011;66387;53.440;10.390;2023-09-19T14:06:36;5.15;;;1.83;;
77324;SDS011;66387;53.440;10.390;2023-09-19T14:09:02;7.00;;;2.30;;
77324;SDS011;66387;53.440;10.390;2023-09-19T14:11:28;5.80;;;1.90;;
77324;SDS011;66387;53.440;10.390;2023-09-19T14:13:54;3.90;;;1.90;;
77324;SDS011;66387;53.440;10.390;2023-09-19T14:16:19;6.50;;;2.43;;
77324;SDS011;66387;53.440;10.390;2023-09-19T14:18:47;3.60;;;2.22;;
77324;SDS011;66387;53.440;10.390;2023-09-19T14:21:12;5.70;;;1.90;;
77324;SDS011;66387;53.440;10.390;2023-09-19T14:23:39;6.70;;;2.03;;
77324;SDS011;66387;53.440;10.390;2023-09-19T14:26:06;9.55;;;2.65;;
77324;SDS011;66387;53.440;10.390;2023-09-19T14:28:32;3.83;;;1.73;;
77324;SDS011;66387;53.440;10.390;2023-09-19T14:31:04;7.82;;;2.03;;
77324;SDS011;66387;53.440;10.390;2023-09-19T14:33:33;5.97;;;2.60;;
77324;SDS011;66387;53.440;10.390;2023-09-19T14:36:01;4.97;;;2.20;;
77324;SDS011;66387;53.440;10.390;2023-09-19T14:38:28;7.53;;;2.00;;
77324;SDS011;66387;53.440;10.390;2023-09-19T14:41:02;4.40;;;2.17;;
77324;SDS011;66387;53.440;10.390;2023-09-19T14:43:28;3.97;;;2.20;;
77324;SDS011;66387;53.440;10.390;2023-09-19T14:45:57;4.45;;;2.15;;
77324;SDS011;66387;53.440;10.390;2023-09-19T14:48:27;9.05;;;2.38;;
77324;SDS011;66387;53.440;10.390;2023-09-19T14:50:52;5.07;;;2.23;;
77324;SDS011;66387;53.440;10.390;2023-09-19T14:53:20;4.57;;;2.22;;
77324;SDS011;66387;53.440;10.390;2023-09-19T14:55:45;6.82;;;2.50;;
77324;SDS011;66387;53.440;10.390;2023-09-19T14:58:12;6.07;;;2.20;;
77324;SDS011;66387;53.440;10.390;2023-09-19T15:00:38;9.45;;;2.20;;
77324;SDS011;66387;53.440;10.390;2023-09-19T15:03:03;5.90;;;2.25;;
77324;SDS011;66387;53.440;10.390;2023-09-19T15:05:29;6.07;;;2.38;;
77324;SDS011;66387;53.440;10.390;2023-09-19T15:07:55;5.28;;;2.28;;
77324;SDS011;66387;53.440;10.390;2023-09-19T15:10:21;9.45;;;3.92;;
77324;SDS011;66387;53.440;10.390;2023-09-19T15:12:47;4.90;;;2.65;;
77324;SDS011;66387;53.440;10.390;2023-09-19T15:15:13;4.80;;;2.42;;
77324;SDS011;66387;53.440;10.390;2023-09-19T15:17:38;6.28;;;2.40;;
77324;SDS011;66387;53.440;10.390;2023-09-19T15:20:04;3.95;;;2.55;;
77324;SDS011;66387;53.440;10.390;2023-09-19T15:22:31;4.55;;;2.30;;
77324;SDS011;66387;53.440;10.390;2023-09-19T15:24:58;7.88;;;3.78;;
77324;SDS011;66387;53.440;10.390;2023-09-19T15:27:24;3.83;;;2.25;;
77324;SDS011;66387;53.440;10.390;2023-09-19T15:29:49;8.57;;;3.03;;
77324;SDS011;66387;53.440;10.390;2023-09-19T15:32:15;4.27;;;2.30;;
77324;SDS011;66387;53.440;10.390;2023-09-19T15:34:40;5.73;;;2.60;;
77324;SDS011;66387;53.440;10.390;2023-09-19T15:37:05;4.83;;;2.60;;
77324;SDS011;66387;53.440;10.390;2023-09-19T15:39:30;9.65;;;3.92;;
77324;SDS011;66387;53.440;10.390;2023-09-19T15:41:58;5.68;;;2.45;;
77324;SDS011;66387;53.440;10.390;2023-09-19T15:44:24;7.18;;;2.60;;
77324;SDS011;66387;53.440;10.390;2023-09-19T15:46:51;5.50;;;2.90;;
77324;SDS011;66387;53.440;10.390;2023-09-19T15:49:17;4.80;;;2.63;;
77324;SDS011;66387;53.440;10.390;2023-09-19T15:51:42;6.97;;;3.00;;